Terminal Aerodrome Forecast
Issued by NWS Brownsville, TX

Home | Current Version | Previous Version | Text Only | Print | Product List | Glossary On
Versions: 1 2 3 4 5 6 7 8 9 10 11 12 13 14 15 16
000
FTUS44 KBRO 161740
TAFHRL
TAF
KHRL 161740Z 1618/1718 17017G25KT P6SM SCT035 BKN050
      TEMPO 1618/1620 BKN025
     FM170000 15011KT P6SM BKN035
     FM170500 14008KT P6SM OVC015
     FM170800 16007KT 5SM BR OVC007
     FM171500 16012KT P6SM OVC015=

USA.gov is the U.S. government's official web portal to all federal, state and local government web resources and services.